Time;durP1;ratioP1;P1;durP2;ratioP2;P2;SDS_P1;SDS_P2;PMS_P1;PMS_P2;Temp;Humidity;BMP_temperature;BMP_pressure;BME280_temperature;BME280_humidity;BME280_pressure;Samples;Min_cycle;Max_cycle;Signal;HPM_P1;HPM_P2
2023/03/29 00:00:13;;;;;;;1.30;1.20;;;18.20;41.40;;;;;;5015953;28;20513;-63
2023/03/29 00:02:46;;;;;;;1.20;1.10;;;18.20;41.40;;;;;;5013074;28;20445;-60
2023/03/29 00:05:17;;;;;;;1.30;1.03;;;18.20;41.40;;;;;;5019628;28;20506;-60
2023/03/29 00:07:43;;;;;;;1.20;1.10;;;18.20;41.40;;;;;;5016405;28;20426;-66
2023/03/29 00:10:10;;;;;;;1.00;0.90;;;18.20;41.40;;;;;;5012682;28;20460;-68
2023/03/29 00:12:38;;;;;;;0.90;0.90;;;18.20;41.40;;;;;;5003237;28;20254;-65
2023/03/29 00:15:05;;;;;;;0.97;0.93;;;18.20;41.40;;;;;;5013864;28;20435;-62
2023/03/29 00:17:30;;;;;;;1.20;1.10;;;18.20;41.40;;;;;;5019622;28;20487;-57
2023/03/29 00:19:56;;;;;;;1.10;1.00;;;18.20;41.40;;;;;;5016782;28;21235;-58
2023/03/29 00:22:22;;;;;;;1.00;0.90;;;18.20;41.40;;;;;;5015516;28;20300;-60
2023/03/29 00:24:52;;;;;;;1.30;1.20;;;18.20;41.40;;;;;;5015735;28;20728;-64
2023/03/29 00:27:19;;;;;;;1.00;0.90;;;18.20;41.50;;;;;;5012227;28;20220;-58
2023/03/29 00:29:45;;;;;;;0.90;0.80;;;18.20;41.50;;;;;;5018038;28;21464;-62
2023/03/29 00:32:10;;;;;;;1.20;1.10;;;18.20;41.40;;;;;;5012514;28;20560;-61
2023/03/29 00:34:36;;;;;;;1.10;1.00;;;18.20;41.50;;;;;;5017290;28;20576;-59
2023/03/29 00:37:02;;;;;;;1.20;1.10;;;18.20;41.40;;;;;;5015903;28;20250;-59
2023/03/29 00:39:29;;;;;;;1.10;1.00;;;18.20;41.40;;;;;;5014443;28;20309;-65
2023/03/29 00:41:55;;;;;;;1.10;1.00;;;18.20;41.50;;;;;;5010664;28;20441;-62
2023/03/29 00:44:58;;;;;;;1.00;1.00;;;18.20;41.40;;;;;;5014830;28;20455;-60
2023/03/29 00:47:33;;;;;;;1.20;1.10;;;18.20;41.40;;;;;;5012702;28;20225;-62
2023/03/29 00:50:05;;;;;;;1.10;1.00;;;18.20;41.40;;;;;;5013918;28;20442;-67
2023/03/29 00:52:33;;;;;;;1.17;0.97;;;18.20;41.50;;;;;;5013595;28;20476;-60
2023/03/29 00:55:04;;;;;;;1.30;1.20;;;18.20;41.50;;;;;;5014939;28;20476;-59
2023/03/29 00:57:32;;;;;;;1.20;1.10;;;18.20;41.40;;;;;;5007683;28;20990;-57
2023/03/29 00:59:59;;;;;;;1.13;1.03;;;18.20;41.50;;;;;;5012601;28;20423;-67
2023/03/29 01:02:27;;;;;;;1.23;1.13;;;18.20;41.50;;;;;;5008222;28;20446;-60
2023/03/29 01:05:07;;;;;;;1.20;1.10;;;18.20;41.40;;;;;;5013617;28;21389;-60
2023/03/29 01:07:46;;;;;;;1.30;1.20;;;18.20;41.40;;;;;;5012001;28;20517;-66
2023/03/29 01:10:52;;;;;;;1.00;0.90;;;18.20;41.40;;;;;;5009168;28;20961;-65
2023/03/29 01:13:25;;;;;;;1.00;0.90;;;18.20;41.40;;;;;;5003442;28;20513;-63
2023/03/29 01:15:53;;;;;;;1.20;1.10;;;18.20;41.50;;;;;;5008977;28;20434;-59
2023/03/29 01:18:21;;;;;;;1.10;1.00;;;18.20;41.40;;;;;;5015107;28;20427;-65
2023/03/29 01:21:15;;;;;;;1.40;1.00;;;18.20;41.50;;;;;;5013690;28;20429;-58
2023/03/29 01:23:44;;;;;;;1.10;1.00;;;18.20;41.40;;;;;;5011965;28;20443;-61
2023/03/29 01:26:21;;;;;;;0.90;0.90;;;18.20;41.50;;;;;;5009597;28;20446;-64
2023/03/29 01:28:51;;;;;;;0.97;0.97;;;18.20;41.50;;;;;;5009415;28;20893;-65
2023/03/29 01:31:33;;;;;;;1.17;1.07;;;18.20;41.50;;;;;;5009637;28;21187;-59
2023/03/29 01:34:11;;;;;;;1.30;1.20;;;18.20;41.40;;;;;;5013706;28;20570;-61
2023/03/29 01:36:48;;;;;;;1.10;1.00;;;18.20;41.40;;;;;;5010941;28;21065;-64
2023/03/29 01:39:14;;;;;;;1.03;0.93;;;18.20;41.50;;;;;;5013795;28;20460;-61
2023/03/29 01:42:14;;;;;;;0.80;0.80;;;18.20;41.50;;;;;;5015613;28;20462;-60
2023/03/29 01:44:57;;;;;;;1.23;1.13;;;18.20;41.50;;;;;;5013758;28;20471;-59
2023/03/29 01:47:45;;;;;;;1.10;1.00;;;18.20;41.40;;;;;;5011439;28;20508;-58
2023/03/29 01:50:36;;;;;;;0.90;0.90;;;18.20;41.50;;;;;;5008910;28;20465;-64
2023/03/29 01:53:17;;;;;;;1.13;1.03;;;18.20;41.50;;;;;;5012142;28;20447;-64
2023/03/29 01:55:55;;;;;;;1.20;1.10;;;18.20;41.50;;;;;;5012101;28;20542;-59
2023/03/29 01:58:30;;;;;;;1.20;1.10;;;18.20;41.50;;;;;;5008670;28;20538;-64
2023/03/29 02:00:57;;;;;;;1.10;1.00;;;18.20;41.50;;;;;;5011812;28;20503;-58
2023/03/29 02:03:26;;;;;;;1.17;1.07;;;18.20;41.50;;;;;;5010970;28;20450;-63
2023/03/29 02:05:53;;;;;;;1.17;1.07;;;18.20;41.50;;;;;;5010194;28;20473;-66
2023/03/29 02:08:21;;;;;;;1.10;1.00;;;18.20;41.50;;;;;;5011052;28;20866;-63
2023/03/29 02:10:47;;;;;;;0.97;0.90;;;18.20;41.50;;;;;;5010875;28;20933;-58
2023/03/29 02:13:13;;;;;;;0.90;0.90;;;18.10;41.30;;;;;;5009335;28;20477;-60
2023/03/29 02:15:38;;;;;;;1.30;1.20;;;18.20;41.50;;;;;;5008841;28;20541;-58
2023/03/29 02:18:05;;;;;;;1.20;1.10;;;18.20;41.50;;;;;;5014171;28;20246;-62
2023/03/29 02:20:37;;;;;;;1.10;1.00;;;18.10;41.40;;;;;;5011157;28;21624;-59
2023/03/29 02:23:33;;;;;;;1.07;0.97;;;18.20;41.50;;;;;;5012496;28;21038;-67
2023/03/29 02:25:59;;;;;;;0.93;0.83;;;18.20;41.50;;;;;;5010381;28;20486;-62
2023/03/29 02:28:27;;;;;;;1.37;1.27;;;18.20;41.50;;;;;;5012181;28;20445;-60
2023/03/29 02:31:13;;;;;;;1.10;1.00;;;18.20;41.50;;;;;;5012634;28;20422;-62
2023/03/29 02:33:45;;;;;;;1.13;1.03;;;18.10;41.40;;;;;;5009410;28;20474;-65
2023/03/29 02:36:17;;;;;;;1.20;1.10;;;18.10;41.50;;;;;;5009249;28;20431;-61
2023/03/29 02:38:43;;;;;;;1.30;1.20;;;18.10;41.40;;;;;;5014354;28;21319;-62
2023/03/29 02:41:09;;;;;;;1.20;1.10;;;18.20;41.50;;;;;;5011782;28;20445;-62
2023/03/29 02:43:36;;;;;;;1.27;1.17;;;18.10;41.40;;;;;;5009639;28;20468;-63
2023/03/29 02:46:04;;;;;;;2.50;1.30;;;18.20;41.50;;;;;;5015774;28;21235;-63
2023/03/29 02:48:32;;;;;;;1.00;0.90;;;18.20;41.50;;;;;;5013702;28;20552;-65
2023/03/29 02:51:01;;;;;;;1.20;1.10;;;18.10;41.40;;;;;;5009833;28;20490;-62
2023/03/29 02:53:38;;;;;;;0.90;0.90;;;18.20;41.50;;;;;;5014824;28;21239;-63
2023/03/29 02:56:04;;;;;;;1.13;1.03;;;18.10;41.40;;;;;;5011230;28;21782;-62
2023/03/29 02:58:30;;;;;;;1.03;0.97;;;18.10;41.40;;;;;;5017615;28;20552;-62
2023/03/29 03:00:59;;;;;;;1.00;0.90;;;18.10;41.50;;;;;;5011622;28;20590;-67
2023/03/29 03:03:26;;;;;;;0.90;0.90;;;18.10;41.40;;;;;;5016902;28;20463;-62
2023/03/29 03:05:52;;;;;;;0.90;0.90;;;18.10;41.40;;;;;;5016995;28;20444;-58
2023/03/29 03:08:18;;;;;;;1.10;1.00;;;18.10;41.40;;;;;;5016376;28;20491;-61
2023/03/29 03:10:44;;;;;;;1.10;1.00;;;18.10;41.40;;;;;;5013877;28;20474;-59
2023/03/29 03:13:10;;;;;;;1.13;1.00;;;18.10;41.40;;;;;;5012380;28;20435;-58
2023/03/29 03:15:36;;;;;;;0.90;0.90;;;18.10;41.40;;;;;;5013044;28;20773;-58
2023/03/29 03:18:02;;;;;;;1.10;1.00;;;18.10;41.30;;;;;;5011569;28;20223;-58
2023/03/29 03:20:28;;;;;;;1.20;1.10;;;18.10;41.40;;;;;;5015524;28;20310;-60
2023/03/29 03:22:56;;;;;;;0.90;0.90;;;18.10;41.40;;;;;;5017249;28;20482;-59
2023/03/29 03:25:22;;;;;;;1.30;1.20;;;18.10;41.40;;;;;;5016901;28;20804;-60
2023/03/29 03:27:48;;;;;;;1.30;1.20;;;18.10;42.10;;;;;;5018869;28;20483;-59
2023/03/29 03:30:15;;;;;;;1.20;1.10;;;18.10;41.40;;;;;;5020301;28;20471;-64
2023/03/29 03:32:42;;;;;;;1.00;1.00;;;18.10;41.40;;;;;;5015668;28;20443;-58
2023/03/29 03:35:10;;;;;;;1.20;1.07;;;18.10;41.30;;;;;;5014620;28;21393;-65
2023/03/29 03:37:37;;;;;;;1.10;1.00;;;18.10;41.30;;;;;;5018107;28;20472;-58
2023/03/29 03:40:08;;;;;;;1.10;1.00;;;18.10;41.30;;;;;;5015165;28;20445;-58
2023/03/29 03:42:34;;;;;;;1.40;1.30;;;18.10;41.40;;;;;;5012056;28;20840;-62
2023/03/29 03:44:59;;;;;;;1.10;1.00;;;18.10;41.40;;;;;;5016370;28;20468;-59
2023/03/29 03:47:25;;;;;;;0.90;0.80;;;18.10;41.40;;;;;;5017160;28;20540;-60
2023/03/29 03:49:50;;;;;;;1.17;1.07;;;18.10;41.40;;;;;;5013432;28;20234;-61
2023/03/29 03:52:17;;;;;;;1.37;0.90;;;18.10;41.40;;;;;;5014607;28;20244;-61
2023/03/29 03:54:45;;;;;;;1.10;1.00;;;18.10;41.40;;;;;;5016041;28;20227;-58
2023/03/29 03:57:11;;;;;;;1.27;1.17;;;18.10;41.40;;;;;;5018065;28;20435;-60
2023/03/29 03:59:37;;;;;;;0.90;0.90;;;18.10;41.30;;;;;;5017562;28;23695;-59
2023/03/29 04:02:03;;;;;;;2.60;1.20;;;18.10;41.40;;;;;;5015181;28;20317;-68
2023/03/29 04:04:29;;;;;;;1.13;1.03;;;18.10;41.30;;;;;;5019223;28;20785;-61
2023/03/29 04:07:01;;;;;;;1.20;1.10;;;18.10;41.30;;;;;;5017977;28;20761;-61
2023/03/29 04:09:31;;;;;;;1.10;1.00;;;18.10;41.40;;;;;;5015100;28;20369;-58
2023/03/29 04:11:58;;;;;;;0.93;0.90;;;18.20;41.40;;;;;;5012548;28;20799;-59
2023/03/29 04:14:24;;;;;;;1.10;1.00;;;18.20;41.30;;;;;;5017877;28;20453;-61
2023/03/29 04:16:51;;;;;;;1.20;1.10;;;18.20;41.20;;;;;;5017185;28;20453;-65
2023/03/29 04:19:17;;;;;;;1.20;1.10;;;18.20;41.20;;;;;;5016289;28;20959;-59
2023/03/29 04:21:44;;;;;;;1.30;1.20;;;18.20;41.10;;;;;;5013582;28;20434;-63
2023/03/29 04:24:10;;;;;;;1.07;0.97;;;18.30;41.10;;;;;;5011782;28;20237;-62
2023/03/29 04:26:36;;;;;;;1.00;0.90;;;18.30;41.10;;;;;;5010772;28;20447;-60
2023/03/29 04:29:03;;;;;;;1.07;0.97;;;18.30;41.10;;;;;;5027078;28;20460;-59
2023/03/29 04:31:29;;;;;;;0.90;0.90;;;18.30;41.10;;;;;;5015755;28;20257;-63
2023/03/29 04:33:55;;;;;;;1.53;1.00;;;18.30;41.10;;;;;;5026298;28;20989;-58
2023/03/29 04:36:20;;;;;;;1.07;1.00;;;18.30;41.10;;;;;;5009346;28;20679;-59
2023/03/29 04:38:46;;;;;;;1.20;1.10;;;18.30;41.00;;;;;;5012980;28;20617;-58
2023/03/29 04:41:12;;;;;;;1.30;1.20;;;18.30;41.00;;;;;;5010321;28;20868;-59
2023/03/29 04:43:37;;;;;;;1.33;1.23;;;18.30;41.00;;;;;;5005834;28;20328;-58
2023/03/29 04:46:06;;;;;;;1.10;1.00;;;18.30;41.10;;;;;;5010197;28;21059;-57
2023/03/29 04:48:32;;;;;;;1.30;1.20;;;18.30;41.10;;;;;;5011049;28;20237;-59
2023/03/29 04:50:58;;;;;;;0.90;0.90;;;18.30;41.10;;;;;;5007851;28;20541;-64
2023/03/29 04:53:23;;;;;;;1.17;1.07;;;18.30;41.10;;;;;;5011504;28;20455;-65
2023/03/29 04:55:49;;;;;;;1.83;1.00;;;18.30;41.10;;;;;;5015681;28;20317;-61
2023/03/29 04:58:14;;;;;;;1.30;1.20;;;18.30;41.10;;;;;;5016353;28;20571;-60
2023/03/29 05:00:41;;;;;;;1.20;1.10;;;18.30;41.10;;;;;;5010070;28;21435;-61
2023/03/29 05:03:10;;;;;;;1.10;1.00;;;18.30;41.10;;;;;;5009439;28;20223;-57
2023/03/29 05:05:36;;;;;;;1.20;1.10;;;18.30;41.10;;;;;;5014536;28;20430;-58
2023/03/29 05:08:02;;;;;;;1.57;1.00;;;18.30;41.00;;;;;;5009465;28;20438;-63
2023/03/29 05:10:27;;;;;;;1.30;1.20;;;18.30;41.10;;;;;;5007400;28;20449;-58
2023/03/29 05:12:53;;;;;;;1.40;1.10;;;18.30;41.10;;;;;;5016456;28;20450;-58
2023/03/29 05:15:21;;;;;;;1.10;1.00;;;18.30;41.00;;;;;;5015758;28;20244;-62
2023/03/29 05:17:47;;;;;;;1.10;1.00;;;18.30;41.00;;;;;;5005406;28;20329;-62
2023/03/29 05:20:14;;;;;;;1.53;1.00;;;18.30;41.10;;;;;;5008129;28;21019;-63
2023/03/29 05:22:40;;;;;;;1.10;1.00;;;18.30;41.00;;;;;;5012542;28;20253;-61
2023/03/29 05:25:07;;;;;;;1.00;0.90;;;18.30;41.00;;;;;;5015303;28;20439;-58
2023/03/29 05:27:33;;;;;;;1.13;1.03;;;18.30;41.00;;;;;;5003643;28;20592;-61
2023/03/29 05:30:00;;;;;;;1.17;1.00;;;18.30;41.00;;;;;;5011021;28;21024;-65
2023/03/29 05:32:26;;;;;;;1.20;1.10;;;18.30;41.00;;;;;;5008031;28;20450;-60
2023/03/29 05:34:52;;;;;;;0.90;0.90;;;18.30;41.00;;;;;;5010008;28;20450;-63
2023/03/29 05:37:17;;;;;;;1.23;1.13;;;18.40;41.00;;;;;;5008430;28;20893;-59
2023/03/29 05:39:44;;;;;;;1.00;0.90;;;18.30;40.90;;;;;;5012728;28;20467;-58
2023/03/29 05:42:12;;;;;;;1.20;1.10;;;18.40;41.10;;;;;;5009698;28;20706;-62
2023/03/29 05:44:38;;;;;;;1.10;1.00;;;18.30;41.00;;;;;;5012366;28;20430;-59
2023/03/29 05:47:04;;;;;;;1.40;1.30;;;18.30;41.00;;;;;;5009656;28;20461;-60
2023/03/29 05:49:29;;;;;;;2.67;1.10;;;18.30;41.00;;;;;;5011559;28;21103;-57
2023/03/29 05:51:55;;;;;;;1.23;1.13;;;18.30;41.00;;;;;;5015208;28;20325;-64
2023/03/29 05:54:22;;;;;;;1.10;1.00;;;18.30;41.10;;;;;;5013856;28;20300;-58
2023/03/29 05:56:48;;;;;;;1.10;1.00;;;18.30;41.10;;;;;;5014740;28;20452;-63
2023/03/29 05:59:13;;;;;;;1.63;1.27;;;18.30;41.10;;;;;;5010414;28;21489;-62
2023/03/29 06:01:40;;;;;;;1.40;1.30;;;18.30;41.20;;;;;;5011253;28;20237;-61
2023/03/29 06:04:06;;;;;;;1.07;0.97;;;18.30;41.20;;;;;;4991425;28;20225;-59
2023/03/29 06:06:32;;;;;;;1.10;1.00;;;18.30;41.10;;;;;;5004509;28;20457;-64
2023/03/29 06:08:58;;;;;;;1.40;1.30;;;18.30;41.20;;;;;;5005581;28;20308;-62
2023/03/29 06:11:25;;;;;;;1.17;1.07;;;18.30;41.20;;;;;;5013206;28;20472;-62
2023/03/29 06:13:51;;;;;;;1.97;1.03;;;18.30;41.20;;;;;;5011375;28;20254;-60
2023/03/29 06:16:17;;;;;;;1.73;1.40;;;18.30;41.20;;;;;;5016208;28;20430;-60
2023/03/29 06:18:43;;;;;;;1.63;1.13;;;18.30;41.60;;;;;;5015339;28;20460;-62
2023/03/29 06:21:09;;;;;;;1.40;1.30;;;18.30;41.10;;;;;;5012948;28;20231;-65
2023/03/29 06:23:35;;;;;;;1.13;1.03;;;18.30;41.20;;;;;;5014680;28;20445;-63
2023/03/29 06:26:01;;;;;;;2.00;1.90;;;18.30;41.10;;;;;;5015283;28;20613;-61
2023/03/29 06:28:27;;;;;;;1.93;1.30;;;18.30;41.10;;;;;;5017812;28;20975;-57
2023/03/29 06:31:00;;;;;;;1.40;1.30;;;18.30;41.20;;;;;;5015390;28;20277;-60
2023/03/29 06:33:29;;;;;;;2.83;1.47;;;18.30;41.10;;;;;;5012699;28;21356;-58
2023/03/29 06:35:55;;;;;;;1.30;0.97;;;18.30;41.20;;;;;;5018334;28;20427;-59
2023/03/29 06:38:21;;;;;;;3.47;1.10;;;18.30;41.10;;;;;;5014134;28;22791;-57
2023/03/29 06:40:47;;;;;;;1.30;1.03;;;18.30;41.20;;;;;;5022292;28;20233;-63
2023/03/29 06:43:12;;;;;;;1.10;1.00;;;18.30;42.00;;;;;;5009507;28;20452;-59
2023/03/29 06:45:38;;;;;;;1.40;1.30;;;18.30;41.20;;;;;;5011647;28;20246;-59
2023/03/29 06:48:06;;;;;;;2.90;1.07;;;18.30;41.20;;;;;;5014368;28;20611;-64
2023/03/29 06:50:33;;;;;;;1.13;1.03;;;18.30;41.20;;;;;;5013434;28;20438;-57
2023/03/29 06:52:58;;;;;;;1.20;1.10;;;18.30;41.20;;;;;;5013658;28;20546;-64
2023/03/29 06:55:24;;;;;;;1.07;0.97;;;18.30;41.20;;;;;;5008453;28;20438;-64
2023/03/29 06:57:51;;;;;;;1.40;1.30;;;18.30;41.20;;;;;;5011146;28;20249;-62
2023/03/29 07:00:18;;;;;;;1.30;1.10;;;18.30;41.20;;;;;;5007377;28;20427;-60
2023/03/29 07:02:48;;;;;;;1.13;1.03;;;18.30;41.20;;;;;;5014623;28;20471;-61
2023/03/29 07:05:14;;;;;;;1.20;0.90;;;18.30;41.20;;;;;;5013158;28;20478;-62
2023/03/29 07:08:30;;;;;;;1.20;1.10;;;18.30;41.20;;;;;;5008163;28;20472;-64
2023/03/29 07:10:32;;;;;;;1.73;1.30;;;18.30;41.20;;;;;;4995231;28;21386;-62
2023/03/29 07:13:01;;;;;;;1.60;1.10;;;18.30;41.20;;;;;;5011031;28;20439;-65
2023/03/29 07:15:28;;;;;;;1.20;1.10;;;18.30;41.20;;;;;;5012582;28;20853;-60
2023/03/29 07:17:54;;;;;;;1.93;1.00;;;18.30;41.20;;;;;;5015615;28;20549;-59
2023/03/29 07:20:21;;;;;;;1.10;1.00;;;18.30;41.20;;;;;;5014101;28;20449;-61
2023/03/29 07:22:49;;;;;;;1.67;0.97;;;18.30;41.20;;;;;;5011460;28;20459;-64
2023/03/29 07:25:17;;;;;;;2.57;1.10;;;18.30;41.20;;;;;;5010106;28;20636;-60
2023/03/29 07:27:44;;;;;;;1.30;1.20;;;18.30;41.20;;;;;;5005503;28;20539;-61
2023/03/29 07:30:12;;;;;;;1.13;1.03;;;18.30;41.20;;;;;;5006417;28;20445;-62
2023/03/29 07:32:39;;;;;;;1.30;1.20;;;18.30;41.20;;;;;;5005913;28;20475;-63
2023/03/29 07:35:06;;;;;;;1.30;1.20;;;18.30;41.20;;;;;;5008195;28;21029;-58
2023/03/29 07:37:34;;;;;;;1.10;1.00;;;18.30;41.20;;;;;;5008403;28;20491;-60
2023/03/29 07:40:02;;;;;;;1.10;1.00;;;18.30;41.20;;;;;;5006540;28;20464;-61
2023/03/29 07:42:27;;;;;;;1.10;1.00;;;18.30;41.30;;;;;;5005385;28;20444;-59
2023/03/29 07:44:53;;;;;;;1.30;1.20;;;18.30;41.30;;;;;;5005251;28;20472;-62
2023/03/29 07:47:19;;;;;;;1.20;1.10;;;18.30;41.30;;;;;;5006939;28;20226;-66
2023/03/29 07:49:45;;;;;;;1.57;1.20;;;18.30;41.20;;;;;;5011926;28;20438;-66
2023/03/29 07:52:10;;;;;;;1.80;1.70;;;18.30;41.30;;;;;;5006491;28;20247;-62
2023/03/29 07:54:36;;;;;;;1.30;1.20;;;18.30;41.30;;;;;;5006259;28;20872;-61
2023/03/29 07:57:02;;;;;;;1.10;1.00;;;18.30;41.30;;;;;;5008252;28;20699;-64
2023/03/29 07:59:28;;;;;;;1.30;1.20;;;18.30;41.30;;;;;;5008662;28;20445;-61
2023/03/29 08:01:54;;;;;;;1.20;1.10;;;18.30;41.30;;;;;;5007431;28;20257;-62
2023/03/29 08:04:20;;;;;;;1.10;1.00;;;18.30;41.30;;;;;;5001855;28;20301;-65
2023/03/29 08:06:45;;;;;;;1.10;1.00;;;18.30;41.30;;;;;;5007513;28;20462;-66
2023/03/29 08:09:11;;;;;;;1.40;1.30;;;18.30;41.30;;;;;;5007904;28;20430;-59
2023/03/29 08:11:38;;;;;;;1.47;1.10;;;18.30;41.30;;;;;;5009426;28;20234;-58
2023/03/29 08:14:04;;;;;;;1.23;1.10;;;18.30;41.30;;;;;;5005598;28;20442;-63
2023/03/29 08:16:30;;;;;;;0.90;0.90;;;18.30;41.30;;;;;;5007416;28;20600;-66
2023/03/29 08:18:56;;;;;;;1.33;1.23;;;18.30;41.30;;;;;;5005995;28;20449;-59
2023/03/29 08:21:22;;;;;;;1.10;1.00;;;18.30;41.30;;;;;;5002584;28;21238;-69
2023/03/29 08:23:47;;;;;;;1.60;1.40;;;18.30;41.30;;;;;;5005186;28;20226;-62
2023/03/29 08:26:14;;;;;;;1.00;1.00;;;18.30;41.30;;;;;;5000593;28;20261;-62
2023/03/29 08:28:40;;;;;;;1.20;1.10;;;18.30;41.30;;;;;;5007238;28;20226;-59
2023/03/29 08:31:07;;;;;;;1.20;1.10;;;18.30;41.30;;;;;;5003908;28;20442;-63
2023/03/29 08:33:32;;;;;;;1.97;1.30;;;18.30;41.40;;;;;;5003735;28;20486;-66
2023/03/29 08:35:58;;;;;;;1.40;1.30;;;18.30;41.40;;;;;;5008771;28;20427;-62
2023/03/29 08:38:23;;;;;;;1.20;1.10;;;18.30;42.10;;;;;;5006328;28;20226;-64
2023/03/29 08:40:49;;;;;;;1.10;1.00;;;18.30;41.40;;;;;;5009335;28;20662;-66
2023/03/29 08:43:15;;;;;;;1.30;1.20;;;18.30;41.30;;;;;;5006159;28;20218;-67
2023/03/29 08:45:48;;;;;;;1.20;1.10;;;18.30;41.50;;;;;;5001940;28;20234;-64
2023/03/29 08:48:40;;;;;;;1.57;1.10;;;18.30;41.40;;;;;;5007365;28;20261;-66
2023/03/29 08:51:28;;;;;;;1.10;1.00;;;18.30;41.40;;;;;;5009716;28;20495;-59
2023/03/29 08:54:23;;;;;;;1.40;1.10;;;18.30;41.50;;;;;;5003558;28;20442;-60
2023/03/29 08:56:50;;;;;;;1.50;1.40;;;18.30;41.50;;;;;;4997300;28;20435;-67
2023/03/29 08:59:21;;;;;;;1.20;1.10;;;18.30;42.20;;;;;;5007613;28;20473;-59
2023/03/29 09:01:48;;;;;;;1.10;1.00;;;18.30;41.50;;;;;;5001921;28;20955;-65
2023/03/29 09:04:24;;;;;;;1.17;1.07;;;18.30;41.50;;;;;;5005267;28;20434;-60
2023/03/29 09:06:50;;;;;;;1.27;1.17;;;18.30;41.50;;;;;;5007085;28;20565;-65
2023/03/29 09:09:19;;;;;;;1.30;1.20;;;18.30;41.50;;;;;;5008553;28;20418;-67
2023/03/29 09:11:51;;;;;;;1.20;1.10;;;18.30;41.50;;;;;;5003061;28;20763;-64
2023/03/29 09:14:34;;;;;;;1.20;1.10;;;18.30;41.50;;;;;;5008487;28;20845;-58
2023/03/29 09:17:19;;;;;;;1.00;0.90;;;18.30;41.50;;;;;;5006652;28;20473;-59
2023/03/29 09:20:18;;;;;;;1.30;1.20;;;18.30;41.60;;;;;;5004436;28;20446;-63
2023/03/29 09:23:00;;;;;;;1.20;1.10;;;18.20;41.40;;;;;;5007215;28;21779;-60
2023/03/29 09:25:49;;;;;;;1.30;1.20;;;18.20;42.30;;;;;;5007853;28;20550;-60
2023/03/29 09:28:39;;;;;;;1.13;1.03;;;18.20;41.50;;;;;;5007438;28;20765;-65
2023/03/29 09:31:25;;;;;;;1.17;1.07;;;18.20;41.50;;;;;;5005044;28;20467;-65
2023/03/29 09:34:17;;;;;;;1.10;1.00;;;18.20;41.40;;;;;;5001411;28;20517;-58
2023/03/29 09:36:55;;;;;;;1.30;1.20;;;18.20;41.50;;;;;;4996405;28;20438;-60
2023/03/29 09:39:22;;;;;;;1.10;1.00;;;18.20;41.60;;;;;;5006936;28;20545;-60
2023/03/29 09:42:08;;;;;;;1.30;1.10;;;18.20;41.60;;;;;;5005413;28;20430;-65
2023/03/29 09:44:39;;;;;;;1.20;1.10;;;18.20;41.50;;;;;;5005348;28;20504;-59
2023/03/29 09:47:19;;;;;;;1.10;1.00;;;18.20;41.60;;;;;;5005632;28;20460;-63
2023/03/29 09:49:54;;;;;;;1.20;1.10;;;18.20;41.60;;;;;;5004722;28;20470;-60
2023/03/29 09:52:19;;;;;;;1.10;1.03;;;18.20;41.60;;;;;;5010099;28;21499;-65
2023/03/29 09:54:46;;;;;;;1.20;1.10;;;18.20;41.60;;;;;;5012958;28;21113;-65
2023/03/29 09:57:15;;;;;;;1.20;1.10;;;18.20;41.60;;;;;;5005252;28;20464;-62
2023/03/29 09:59:42;;;;;;;1.60;1.30;;;18.20;41.60;;;;;;5008958;28;20234;-65
2023/03/29 10:02:11;;;;;;;1.27;1.17;;;18.20;41.60;;;;;;5008097;28;20439;-61
2023/03/29 10:04:38;;;;;;;1.20;1.10;;;18.20;41.60;;;;;;5003303;28;20467;-61
2023/03/29 10:07:06;;;;;;;1.30;1.20;;;18.20;41.60;;;;;;5009172;28;20469;-58
2023/03/29 10:09:33;;;;;;;1.20;1.10;;;18.20;41.60;;;;;;5007582;28;20455;-60
2023/03/29 10:12:04;;;;;;;1.20;1.10;;;18.20;41.70;;;;;;5003221;28;21019;-63
2023/03/29 10:14:33;;;;;;;1.20;1.10;;;18.20;41.60;;;;;;4997873;28;20547;-60
2023/03/29 10:16:58;;;;;;;1.57;1.20;;;18.20;41.60;;;;;;5003790;28;20454;-64
2023/03/29 10:19:51;;;;;;;1.97;1.20;;;18.20;41.70;;;;;;5007308;28;20446;-60
2023/03/29 10:22:22;;;;;;;1.27;1.17;;;18.20;41.60;;;;;;4996843;28;20223;-66
2023/03/29 10:24:52;;;;;;;1.30;1.20;;;18.20;41.70;;;;;;5005471;28;21137;-58
2023/03/29 10:27:26;;;;;;;1.10;1.00;;;18.20;41.60;;;;;;4998801;28;20513;-58
2023/03/29 10:29:54;;;;;;;1.40;1.30;;;18.20;41.70;;;;;;5003378;28;20814;-61
2023/03/29 10:32:50;;;;;;;1.20;1.10;;;18.20;41.70;;;;;;5003128;28;20465;-62
2023/03/29 10:35:28;;;;;;;1.33;1.23;;;18.20;41.70;;;;;;5000965;28;20455;-65
2023/03/29 10:37:57;;;;;;;1.20;1.10;;;18.20;41.70;;;;;;5003611;28;20468;-63
2023/03/29 10:40:27;;;;;;;1.40;1.30;;;18.20;41.80;;;;;;5008059;28;20468;-65
2023/03/29 10:42:58;;;;;;;1.43;1.33;;;18.20;41.70;;;;;;5008742;28;20463;-60
2023/03/29 10:45:33;;;;;;;1.30;1.20;;;18.20;41.70;;;;;;4996499;28;21731;-61
2023/03/29 10:47:59;;;;;;;1.30;1.20;;;18.20;41.70;;;;;;5006585;28;20523;-63
2023/03/29 10:50:33;;;;;;;2.03;1.30;;;18.20;41.70;;;;;;5004281;28;20786;-66
2023/03/29 10:52:59;;;;;;;1.83;1.20;;;18.20;41.70;;;;;;5007621;28;20674;-59
2023/03/29 10:55:32;;;;;;;1.30;1.20;;;18.20;41.70;;;;;;5010234;28;21140;-60
2023/03/29 10:58:26;;;;;;;1.90;1.13;;;18.20;41.70;;;;;;5008531;28;20492;-59
2023/03/29 11:00:55;;;;;;;1.27;1.17;;;18.20;41.70;;;;;;4986883;28;20497;-66
2023/03/29 11:03:52;;;;;;;1.60;1.30;;;18.20;41.70;;;;;;5005379;28;20434;-64
2023/03/29 11:06:35;;;;;;;1.30;1.20;;;18.20;41.70;;;;;;5006571;28;20541;-65
2023/03/29 11:09:07;;;;;;;1.47;1.33;;;18.20;41.70;;;;;;5008839;28;20472;-58
2023/03/29 11:12:01;;;;;;;1.37;1.27;;;18.20;41.70;;;;;;5006358;28;20434;-62
2023/03/29 11:14:38;;;;;;;1.17;1.07;;;18.20;41.70;;;;;;5003950;28;20449;-64
2023/03/29 11:17:43;;;;;;;1.23;1.00;;;18.20;41.70;;;;;;5006662;28;20454;-67
2023/03/29 11:20:14;;;;;;;1.30;1.20;;;18.20;41.70;;;;;;5006725;28;20442;-62
2023/03/29 11:22:51;;;;;;;1.43;1.33;;;18.20;41.80;;;;;;5007756;28;20804;-62
2023/03/29 11:25:30;;;;;;;1.30;1.20;;;18.20;41.80;;;;;;5004971;28;20578;-61
2023/03/29 11:28:04;;;;;;;1.40;1.30;;;18.20;41.90;;;;;;5003750;28;20456;-59
2023/03/29 11:30:53;;;;;;;1.10;1.00;;;18.20;41.80;;;;;;5005337;28;20979;-65
2023/03/29 11:33:25;;;;;;;1.20;1.10;;;18.20;41.80;;;;;;5005989;28;20450;-61
2023/03/29 11:36:00;;;;;;;1.43;1.27;;;18.20;41.80;;;;;;5008480;28;20499;-62
2023/03/29 11:38:38;;;;;;;1.30;1.20;;;18.20;41.80;;;;;;5006232;28;20476;-59
2023/03/29 11:41:17;;;;;;;1.40;1.30;;;18.20;41.80;;;;;;5002441;28;20443;-62
2023/03/29 11:43:53;;;;;;;1.30;1.20;;;18.20;41.70;;;;;;5004930;28;20449;-64
2023/03/29 11:46:44;;;;;;;1.13;1.03;;;18.20;41.80;;;;;;5004026;28;20492;-61
2023/03/29 11:49:39;;;;;;;1.30;1.20;;;18.20;41.80;;;;;;5001539;28;20465;-61
2023/03/29 11:52:28;;;;;;;1.10;1.00;;;18.20;41.80;;;;;;5005582;28;20462;-60
2023/03/29 11:55:01;;;;;;;1.33;1.23;;;18.20;41.80;;;;;;5007752;28;20585;-63
2023/03/29 11:57:46;;;;;;;1.30;1.20;;;18.20;41.80;;;;;;5005832;28;20511;-65
2023/03/29 12:00:17;;;;;;;1.07;0.97;;;18.20;41.90;;;;;;5006241;28;20541;-61
2023/03/29 12:02:55;;;;;;;1.10;1.00;;;18.20;41.80;;;;;;5008175;28;21015;-59
2023/03/29 12:05:44;;;;;;;1.60;1.33;;;18.20;41.90;;;;;;5005117;28;20442;-63
2023/03/29 12:08:30;;;;;;;1.13;1.03;;;18.20;41.90;;;;;;5005470;28;20808;-58
2023/03/29 12:11:13;;;;;;;1.27;1.10;;;18.20;41.90;;;;;;5003431;28;20434;-59
2023/03/29 12:14:14;;;;;;;1.90;1.40;;;18.20;42.70;;;;;;5002526;28;20442;-63
2023/03/29 12:16:42;;;;;;;1.33;1.23;;;18.20;41.90;;;;;;5004640;28;21002;-65
2023/03/29 12:19:19;;;;;;;1.43;1.33;;;18.20;41.90;;;;;;5004194;28;20469;-61
2023/03/29 12:21:46;;;;;;;1.20;1.10;;;18.20;42.00;;;;;;5006781;28;20566;-61
2023/03/29 12:24:14;;;;;;;1.87;1.20;;;18.20;41.80;;;;;;5007412;28;20434;-59
2023/03/29 12:27:07;;;;;;;1.50;1.40;;;18.20;41.80;;;;;;5001247;28;20464;-58
2023/03/29 12:29:45;;;;;;;3.43;1.17;;;18.20;41.90;;;;;;5005309;28;20479;-59
2023/03/29 12:32:35;;;;;;;1.40;1.30;;;18.20;41.90;;;;;;5004603;28;20467;-60
2023/03/29 12:35:28;;;;;;;1.10;1.00;;;18.20;42.00;;;;;;5004061;28;20837;-58
2023/03/29 12:38:04;;;;;;;1.40;1.30;;;18.20;41.90;;;;;;5006466;28;20459;-64
2023/03/29 12:40:43;;;;;;;1.10;1.00;;;18.20;41.90;;;;;;5000760;28;20482;-58
2023/03/29 12:43:26;;;;;;;1.13;1.03;;;18.20;41.90;;;;;;4998317;28;21241;-63
2023/03/29 12:46:25;;;;;;;1.20;1.10;;;18.20;42.00;;;;;;4998915;28;20507;-63
2023/03/29 12:48:56;;;;;;;1.10;1.00;;;18.20;41.90;;;;;;4989524;28;21197;-63
2023/03/29 12:51:29;;;;;;;1.30;1.20;;;18.20;42.00;;;;;;5003446;28;20473;-62
2023/03/29 12:54:18;;;;;;;1.23;1.13;;;18.20;42.00;;;;;;4994627;28;21014;-61
2023/03/29 12:56:55;;;;;;;1.33;1.23;;;18.20;42.00;;;;;;4999742;28;20460;-65
2023/03/29 12:59:47;;;;;;;1.33;1.20;;;18.20;42.00;;;;;;4998934;28;20486;-61
2023/03/29 13:02:13;;;;;;;1.47;1.20;;;18.20;42.00;;;;;;4994148;28;21155;-60
2023/03/29 13:04:41;;;;;;;1.20;1.10;;;18.20;42.00;;;;;;4996833;28;20851;-59
2023/03/29 13:07:13;;;;;;;1.30;1.20;;;18.20;42.10;;;;;;4994900;28;20222;-63
2023/03/29 13:09:54;;;;;;;1.73;1.10;;;18.20;42.00;;;;;;4998583;28;20438;-67